sensor_id;sensor_type;location;lat;lon;timestamp;P1;durP1;ratioP1;P2;durP2;ratioP2
16310;SDS011;8264;48.510;8.872;2022-10-31T00:00:51;4.90;;;3.27;;
16310;SDS011;8264;48.510;8.872;2022-10-31T00:03:18;6.03;;;3.60;;
16310;SDS011;8264;48.510;8.872;2022-10-31T00:05:45;9.73;;;3.87;;
16310;SDS011;8264;48.510;8.872;2022-10-31T00:08:13;6.23;;;4.20;;
16310;SDS011;8264;48.510;8.872;2022-10-31T00:10:41;6.13;;;3.70;;
16310;SDS011;8264;48.510;8.872;2022-10-31T00:13:09;6.20;;;3.63;;
16310;SDS011;8264;48.510;8.872;2022-10-31T00:15:36;7.93;;;3.80;;
16310;SDS011;8264;48.510;8.872;2022-10-31T00:18:04;4.87;;;3.33;;
16310;SDS011;8264;48.510;8.872;2022-10-31T00:20:31;7.07;;;3.60;;
16310;SDS011;8264;48.510;8.872;2022-10-31T00:22:58;5.40;;;3.73;;
16310;SDS011;8264;48.510;8.872;2022-10-31T00:25:25;8.33;;;3.83;;
16310;SDS011;8264;48.510;8.872;2022-10-31T00:27:53;8.63;;;3.50;;
16310;SDS011;8264;48.510;8.872;2022-10-31T00:30:20;9.00;;;3.53;;
16310;SDS011;8264;48.510;8.872;2022-10-31T00:32:46;6.10;;;3.20;;
16310;SDS011;8264;48.510;8.872;2022-10-31T00:35:13;11.73;;;3.77;;
16310;SDS011;8264;48.510;8.872;2022-10-31T00:37:40;4.83;;;3.30;;
16310;SDS011;8264;48.510;8.872;2022-10-31T00:40:07;5.87;;;3.50;;
16310;SDS011;8264;48.510;8.872;2022-10-31T00:42:34;8.13;;;3.23;;
16310;SDS011;8264;48.510;8.872;2022-10-31T00:45:02;5.60;;;3.47;;
16310;SDS011;8264;48.510;8.872;2022-10-31T00:47:29;6.47;;;3.60;;
16310;SDS011;8264;48.510;8.872;2022-10-31T00:49:55;7.17;;;3.20;;
16310;SDS011;8264;48.510;8.872;2022-10-31T00:52:22;4.77;;;3.30;;
16310;SDS011;8264;48.510;8.872;2022-10-31T00:54:48;8.23;;;3.57;;
16310;SDS011;8264;48.510;8.872;2022-10-31T00:57:15;4.60;;;3.03;;
16310;SDS011;8264;48.510;8.872;2022-10-31T00:59:41;6.60;;;3.37;;
16310;SDS011;8264;48.510;8.872;2022-10-31T01:02:09;5.10;;;3.20;;
16310;SDS011;8264;48.510;8.872;2022-10-31T01:04:35;5.70;;;3.07;;
16310;SDS011;8264;48.510;8.872;2022-10-31T01:07:02;4.37;;;3.20;;
16310;SDS011;8264;48.510;8.872;2022-10-31T01:09:28;6.47;;;3.60;;
16310;SDS011;8264;48.510;8.872;2022-10-31T01:11:55;6.30;;;3.10;;
16310;SDS011;8264;48.510;8.872;2022-10-31T01:14:21;9.37;;;3.47;;
16310;SDS011;8264;48.510;8.872;2022-10-31T01:16:48;6.40;;;3.10;;
16310;SDS011;8264;48.510;8.872;2022-10-31T01:19:15;6.73;;;3.10;;
16310;SDS011;8264;48.510;8.872;2022-10-31T01:21:42;7.57;;;3.17;;
16310;SDS011;8264;48.510;8.872;2022-10-31T01:24:08;6.37;;;2.97;;
16310;SDS011;8264;48.510;8.872;2022-10-31T01:26:35;8.00;;;3.33;;
16310;SDS011;8264;48.510;8.872;2022-10-31T01:29:03;4.03;;;3.33;;
16310;SDS011;8264;48.510;8.872;2022-10-31T01:31:32;7.33;;;4.00;;
16310;SDS011;8264;48.510;8.872;2022-10-31T01:33:59;5.77;;;2.87;;
16310;SDS011;8264;48.510;8.872;2022-10-31T01:36:28;5.17;;;2.90;;
16310;SDS011;8264;48.510;8.872;2022-10-31T01:38:56;5.90;;;2.93;;
16310;SDS011;8264;48.510;8.872;2022-10-31T01:41:25;9.47;;;3.40;;
16310;SDS011;8264;48.510;8.872;2022-10-31T01:43:53;8.07;;;3.20;;
16310;SDS011;8264;48.510;8.872;2022-10-31T01:46:21;4.87;;;3.37;;
16310;SDS011;8264;48.510;8.872;2022-10-31T01:48:50;6.03;;;3.20;;
16310;SDS011;8264;48.510;8.872;2022-10-31T01:51:17;3.40;;;2.73;;
16310;SDS011;8264;48.510;8.872;2022-10-31T01:53:47;10.90;;;3.30;;
16310;SDS011;8264;48.510;8.872;2022-10-31T01:56:14;8.17;;;3.47;;
16310;SDS011;8264;48.510;8.872;2022-10-31T01:58:41;7.47;;;3.57;;
16310;SDS011;8264;48.510;8.872;2022-10-31T02:01:08;8.13;;;3.17;;
16310;SDS011;8264;48.510;8.872;2022-10-31T02:03:35;7.03;;;3.80;;
16310;SDS011;8264;48.510;8.872;2022-10-31T02:06:02;8.40;;;3.40;;
16310;SDS011;8264;48.510;8.872;2022-10-31T02:08:30;8.97;;;3.60;;
16310;SDS011;8264;48.510;8.872;2022-10-31T02:10:59;8.80;;;3.37;;
16310;SDS011;8264;48.510;8.872;2022-10-31T02:13:26;4.40;;;3.30;;
16310;SDS011;8264;48.510;8.872;2022-10-31T02:15:55;8.27;;;3.40;;
16310;SDS011;8264;48.510;8.872;2022-10-31T02:18:23;5.43;;;3.40;;
16310;SDS011;8264;48.510;8.872;2022-10-31T02:20:54;4.97;;;3.10;;
16310;SDS011;8264;48.510;8.872;2022-10-31T02:23:42;4.67;;;3.13;;
16310;SDS011;8264;48.510;8.872;2022-10-31T02:32:40;8.83;;;3.50;;
16310;SDS011;8264;48.510;8.872;2022-10-31T02:35:23;5.87;;;3.37;;
16310;SDS011;8264;48.510;8.872;2022-10-31T02:37:57;6.37;;;3.77;;
16310;SDS011;8264;48.510;8.872;2022-10-31T02:40:30;6.83;;;3.63;;
16310;SDS011;8264;48.510;8.872;2022-10-31T02:43:02;7.07;;;3.73;;
16310;SDS011;8264;48.510;8.872;2022-10-31T02:45:33;7.03;;;3.13;;
16310;SDS011;8264;48.510;8.872;2022-10-31T02:48:07;5.90;;;3.40;;
16310;SDS011;8264;48.510;8.872;2022-10-31T02:50:36;6.30;;;3.63;;
16310;SDS011;8264;48.510;8.872;2022-10-31T02:53:04;6.37;;;3.87;;
16310;SDS011;8264;48.510;8.872;2022-10-31T02:58:23;6.97;;;3.50;;
16310;SDS011;8264;48.510;8.872;2022-10-31T03:00:54;9.57;;;3.50;;
16310;SDS011;8264;48.510;8.872;2022-10-31T03:03:30;6.30;;;3.60;;
16310;SDS011;8264;48.510;8.872;2022-10-31T03:06:00;9.23;;;3.63;;
16310;SDS011;8264;48.510;8.872;2022-10-31T03:08:30;6.70;;;3.47;;
16310;SDS011;8264;48.510;8.872;2022-10-31T03:11:00;7.57;;;3.67;;
16310;SDS011;8264;48.510;8.872;2022-10-31T03:13:29;4.53;;;3.47;;
16310;SDS011;8264;48.510;8.872;2022-10-31T03:16:02;7.43;;;3.40;;
16310;SDS011;8264;48.510;8.872;2022-10-31T03:18:34;5.60;;;3.10;;
16310;SDS011;8264;48.510;8.872;2022-10-31T03:21:04;7.17;;;3.83;;
16310;SDS011;8264;48.510;8.872;2022-10-31T03:23:32;7.50;;;3.50;;
16310;SDS011;8264;48.510;8.872;2022-10-31T03:26:01;8.43;;;3.50;;
16310;SDS011;8264;48.510;8.872;2022-10-31T03:28:31;6.90;;;3.30;;
16310;SDS011;8264;48.510;8.872;2022-10-31T03:31:00;5.20;;;3.40;;
16310;SDS011;8264;48.510;8.872;2022-10-31T03:33:29;4.17;;;2.80;;
16310;SDS011;8264;48.510;8.872;2022-10-31T03:36:00;4.80;;;2.90;;
16310;SDS011;8264;48.510;8.872;2022-10-31T03:38:29;8.50;;;3.20;;
16310;SDS011;8264;48.510;8.872;2022-10-31T03:40:58;5.67;;;3.43;;
16310;SDS011;8264;48.510;8.872;2022-10-31T03:43:26;5.30;;;3.33;;
16310;SDS011;8264;48.510;8.872;2022-10-31T03:45:56;5.63;;;3.00;;
16310;SDS011;8264;48.510;8.872;2022-10-31T03:48:22;7.43;;;3.17;;
16310;SDS011;8264;48.510;8.872;2022-10-31T03:50:52;8.70;;;3.17;;
16310;SDS011;8264;48.510;8.872;2022-10-31T03:53:25;13.17;;;3.27;;
16310;SDS011;8264;48.510;8.872;2022-10-31T03:55:55;5.43;;;2.90;;
16310;SDS011;8264;48.510;8.872;2022-10-31T03:58:26;7.90;;;3.17;;
16310;SDS011;8264;48.510;8.872;2022-10-31T04:00:54;6.30;;;3.20;;
16310;SDS011;8264;48.510;8.872;2022-10-31T04:03:22;9.57;;;3.40;;
16310;SDS011;8264;48.510;8.872;2022-10-31T04:05:51;7.33;;;3.33;;
16310;SDS011;8264;48.510;8.872;2022-10-31T04:08:20;6.10;;;2.93;;
16310;SDS011;8264;48.510;8.872;2022-10-31T04:10:51;6.50;;;3.10;;
16310;SDS011;8264;48.510;8.872;2022-10-31T04:13:19;10.63;;;3.60;;
16310;SDS011;8264;48.510;8.872;2022-10-31T04:15:47;7.23;;;3.00;;
16310;SDS011;8264;48.510;8.872;2022-10-31T04:18:15;6.73;;;2.63;;
16310;SDS011;8264;48.510;8.872;2022-10-31T04:20:41;5.73;;;2.90;;
16310;SDS011;8264;48.510;8.872;2022-10-31T04:23:10;4.03;;;2.50;;
16310;SDS011;8264;48.510;8.872;2022-10-31T04:25:42;6.27;;;3.03;;
16310;SDS011;8264;48.510;8.872;2022-10-31T04:28:10;6.90;;;3.20;;
16310;SDS011;8264;48.510;8.872;2022-10-31T04:30:36;6.63;;;3.00;;
16310;SDS011;8264;48.510;8.872;2022-10-31T04:33:03;7.67;;;2.93;;
16310;SDS011;8264;48.510;8.872;2022-10-31T04:35:29;5.40;;;3.20;;
16310;SDS011;8264;48.510;8.872;2022-10-31T04:37:56;4.50;;;2.60;;
16310;SDS011;8264;48.510;8.872;2022-10-31T04:40:22;5.60;;;2.87;;
16310;SDS011;8264;48.510;8.872;2022-10-31T04:42:49;8.07;;;3.07;;
16310;SDS011;8264;48.510;8.872;2022-10-31T04:45:16;9.33;;;2.93;;
16310;SDS011;8264;48.510;8.872;2022-10-31T04:47:43;6.23;;;2.87;;
16310;SDS011;8264;48.510;8.872;2022-10-31T04:50:09;4.07;;;3.10;;
16310;SDS011;8264;48.510;8.872;2022-10-31T04:52:38;6.67;;;3.23;;
16310;SDS011;8264;48.510;8.872;2022-10-31T04:55:05;4.53;;;2.80;;
16310;SDS011;8264;48.510;8.872;2022-10-31T04:57:32;4.73;;;2.90;;
16310;SDS011;8264;48.510;8.872;2022-10-31T04:59:59;4.77;;;2.70;;
16310;SDS011;8264;48.510;8.872;2022-10-31T05:02:26;6.60;;;2.97;;
16310;SDS011;8264;48.510;8.872;2022-10-31T05:04:53;5.83;;;3.07;;
16310;SDS011;8264;48.510;8.872;2022-10-31T05:07:19;6.90;;;2.83;;
16310;SDS011;8264;48.510;8.872;2022-10-31T05:09:46;6.57;;;2.70;;
16310;SDS011;8264;48.510;8.872;2022-10-31T05:12:12;6.23;;;3.00;;
16310;SDS011;8264;48.510;8.872;2022-10-31T05:14:39;6.03;;;3.03;;
16310;SDS011;8264;48.510;8.872;2022-10-31T05:17:05;7.40;;;2.87;;
16310;SDS011;8264;48.510;8.872;2022-10-31T05:19:33;6.13;;;2.83;;
16310;SDS011;8264;48.510;8.872;2022-10-31T05:22:00;6.53;;;3.07;;
16310;SDS011;8264;48.510;8.872;2022-10-31T05:24:26;5.47;;;3.17;;
16310;SDS011;8264;48.510;8.872;2022-10-31T05:26:53;6.33;;;3.00;;
16310;SDS011;8264;48.510;8.872;2022-10-31T05:29:19;5.83;;;3.33;;
16310;SDS011;8264;48.510;8.872;2022-10-31T05:31:46;6.43;;;2.90;;
16310;SDS011;8264;48.510;8.872;2022-10-31T05:34:12;8.70;;;2.80;;
16310;SDS011;8264;48.510;8.872;2022-10-31T05:36:40;9.23;;;3.20;;
16310;SDS011;8264;48.510;8.872;2022-10-31T05:39:06;6.60;;;3.23;;
16310;SDS011;8264;48.510;8.872;2022-10-31T05:41:33;4.87;;;2.70;;
16310;SDS011;8264;48.510;8.872;2022-10-31T05:43:59;7.93;;;2.73;;
16310;SDS011;8264;48.510;8.872;2022-10-31T05:46:26;5.83;;;2.90;;
16310;SDS011;8264;48.510;8.872;2022-10-31T05:48:52;4.40;;;2.63;;
16310;SDS011;8264;48.510;8.872;2022-10-31T05:51:19;7.67;;;2.93;;
16310;SDS011;8264;48.510;8.872;2022-10-31T05:53:47;8.43;;;3.03;;
16310;SDS011;8264;48.510;8.872;2022-10-31T05:56:13;4.33;;;2.97;;
16310;SDS011;8264;48.510;8.872;2022-10-31T05:58:40;5.87;;;2.93;;
16310;SDS011;8264;48.510;8.872;2022-10-31T06:01:06;6.03;;;2.73;;
16310;SDS011;8264;48.510;8.872;2022-10-31T06:03:34;6.40;;;3.20;;
16310;SDS011;8264;48.510;8.872;2022-10-31T06:06:00;7.07;;;3.43;;
16310;SDS011;8264;48.510;8.872;2022-10-31T06:08:27;5.97;;;3.03;;
16310;SDS011;8264;48.510;8.872;2022-10-31T06:10:55;5.37;;;2.83;;
16310;SDS011;8264;48.510;8.872;2022-10-31T06:13:21;6.57;;;2.87;;
16310;SDS011;8264;48.510;8.872;2022-10-31T06:15:48;5.43;;;3.03;;
16310;SDS011;8264;48.510;8.872;2022-10-31T06:18:14;5.80;;;2.90;;
16310;SDS011;8264;48.510;8.872;2022-10-31T06:20:41;10.13;;;3.40;;
16310;SDS011;8264;48.510;8.872;2022-10-31T06:23:07;8.63;;;2.97;;
16310;SDS011;8264;48.510;8.872;2022-10-31T06:25:34;8.13;;;2.90;;
16310;SDS011;8264;48.510;8.872;2022-10-31T06:28:02;4.23;;;2.73;;
16310;SDS011;8264;48.510;8.872;2022-10-31T06:30:29;7.10;;;3.03;;
16310;SDS011;8264;48.510;8.872;2022-10-31T06:33:01;7.57;;;2.83;;
16310;SDS011;8264;48.510;8.872;2022-10-31T06:35:28;4.20;;;3.00;;
16310;SDS011;8264;48.510;8.872;2022-10-31T06:37:55;8.67;;;3.80;;
16310;SDS011;8264;48.510;8.872;2022-10-31T06:40:21;8.93;;;3.17;;
16310;SDS011;8264;48.510;8.872;2022-10-31T06:42:55;7.03;;;3.00;;
16310;SDS011;8264;48.510;8.872;2022-10-31T06:45:24;7.07;;;3.03;;
16310;SDS011;8264;48.510;8.872;2022-10-31T06:47:51;4.13;;;2.57;;
16310;SDS011;8264;48.510;8.872;2022-10-31T06:50:18;7.40;;;3.00;;
16310;SDS011;8264;48.510;8.872;2022-10-31T06:52:49;9.43;;;3.03;;
16310;SDS011;8264;48.510;8.872;2022-10-31T06:55:16;7.67;;;3.50;;
16310;SDS011;8264;48.510;8.872;2022-10-31T06:57:44;4.97;;;3.00;;
16310;SDS011;8264;48.510;8.872;2022-10-31T07:00:15;4.57;;;2.90;;
16310;SDS011;8264;48.510;8.872;2022-10-31T07:02:43;5.73;;;3.37;;
16310;SDS011;8264;48.510;8.872;2022-10-31T07:05:18;4.10;;;3.00;;
16310;SDS011;8264;48.510;8.872;2022-10-31T07:07:44;6.93;;;3.37;;
16310;SDS011;8264;48.510;8.872;2022-10-31T07:10:11;5.50;;;3.00;;
16310;SDS011;8264;48.510;8.872;2022-10-31T07:12:37;10.70;;;3.33;;
16310;SDS011;8264;48.510;8.872;2022-10-31T07:15:05;7.27;;;3.47;;
16310;SDS011;8264;48.510;8.872;2022-10-31T07:17:32;7.60;;;3.50;;
16310;SDS011;8264;48.510;8.872;2022-10-31T07:20:00;10.73;;;3.47;;
16310;SDS011;8264;48.510;8.872;2022-10-31T07:22:31;11.77;;;3.70;;
16310;SDS011;8264;48.510;8.872;2022-10-31T07:24:58;8.27;;;3.40;;
16310;SDS011;8264;48.510;8.872;2022-10-31T07:27:25;8.30;;;3.40;;
16310;SDS011;8264;48.510;8.872;2022-10-31T07:29:51;10.80;;;4.07;;
16310;SDS011;8264;48.510;8.872;2022-10-31T07:32:18;7.33;;;2.90;;
16310;SDS011;8264;48.510;8.872;2022-10-31T07:34:44;8.53;;;3.27;;
16310;SDS011;8264;48.510;8.872;2022-10-31T07:37:12;10.17;;;3.33;;
16310;SDS011;8264;48.510;8.872;2022-10-31T07:39:39;5.50;;;3.27;;
16310;SDS011;8264;48.510;8.872;2022-10-31T07:42:05;6.93;;;3.63;;
16310;SDS011;8264;48.510;8.872;2022-10-31T07:44:32;5.13;;;2.97;;
16310;SDS011;8264;48.510;8.872;2022-10-31T07:46:58;10.13;;;3.30;;
16310;SDS011;8264;48.510;8.872;2022-10-31T07:49:25;7.70;;;3.57;;
16310;SDS011;8264;48.510;8.872;2022-10-31T07:51:51;6.00;;;3.43;;
16310;SDS011;8264;48.510;8.872;2022-10-31T07:54:19;5.73;;;3.30;;
16310;SDS011;8264;48.510;8.872;2022-10-31T07:56:46;5.37;;;3.00;;
16310;SDS011;8264;48.510;8.872;2022-10-31T07:59:12;6.50;;;3.10;;
16310;SDS011;8264;48.510;8.872;2022-10-31T08:01:39;7.70;;;3.40;;
16310;SDS011;8264;48.510;8.872;2022-10-31T08:04:06;6.53;;;2.90;;
16310;SDS011;8264;48.510;8.872;2022-10-31T08:06:32;6.07;;;3.13;;
16310;SDS011;8264;48.510;8.872;2022-10-31T08:08:59;5.83;;;3.10;;
16310;SDS011;8264;48.510;8.872;2022-10-31T08:11:27;6.40;;;3.33;;
16310;SDS011;8264;48.510;8.872;2022-10-31T08:13:53;5.00;;;3.17;;
16310;SDS011;8264;48.510;8.872;2022-10-31T08:16:20;5.93;;;3.00;;
16310;SDS011;8264;48.510;8.872;2022-10-31T08:18:46;5.90;;;3.30;;
16310;SDS011;8264;48.510;8.872;2022-10-31T08:21:13;8.20;;;3.67;;
16310;SDS011;8264;48.510;8.872;2022-10-31T08:23:39;9.73;;;3.40;;
16310;SDS011;8264;48.510;8.872;2022-10-31T08:26:06;7.67;;;3.80;;
16310;SDS011;8264;48.510;8.872;2022-10-31T08:28:34;8.57;;;3.87;;
16310;SDS011;8264;48.510;8.872;2022-10-31T08:31:00;9.43;;;3.70;;
16310;SDS011;8264;48.510;8.872;2022-10-31T08:33:27;7.37;;;3.50;;
16310;SDS011;8264;48.510;8.872;2022-10-31T08:35:53;8.67;;;3.17;;
16310;SDS011;8264;48.510;8.872;2022-10-31T08:38:20;8.30;;;4.23;;
16310;SDS011;8264;48.510;8.872;2022-10-31T08:40:48;12.87;;;4.20;;
16310;SDS011;8264;48.510;8.872;2022-10-31T08:43:16;8.13;;;3.57;;
16310;SDS011;8264;48.510;8.872;2022-10-31T08:45:46;9.70;;;3.70;;
16310;SDS011;8264;48.510;8.872;2022-10-31T08:48:15;5.63;;;3.67;;
16310;SDS011;8264;48.510;8.872;2022-10-31T08:50:43;8.53;;;4.13;;
16310;SDS011;8264;48.510;8.872;2022-10-31T08:53:11;7.70;;;4.37;;
16310;SDS011;8264;48.510;8.872;2022-10-31T08:55:38;8.43;;;3.63;;
16310;SDS011;8264;48.510;8.872;2022-10-31T08:58:07;5.87;;;3.30;;
16310;SDS011;8264;48.510;8.872;2022-10-31T09:00:36;6.90;;;3.33;;
16310;SDS011;8264;48.510;8.872;2022-10-31T09:03:05;10.80;;;3.47;;
16310;SDS011;8264;48.510;8.872;2022-10-31T09:05:33;5.90;;;2.83;;
16310;SDS011;8264;48.510;8.872;2022-10-31T09:08:00;8.00;;;3.77;;
16310;SDS011;8264;48.510;8.872;2022-10-31T09:10:28;6.63;;;3.10;;
16310;SDS011;8264;48.510;8.872;2022-10-31T09:12:55;6.30;;;3.23;;
16310;SDS011;8264;48.510;8.872;2022-10-31T09:15:22;9.83;;;3.03;;
16310;SDS011;8264;48.510;8.872;2022-10-31T09:17:48;6.43;;;3.37;;
16310;SDS011;8264;48.510;8.872;2022-10-31T09:20:16;8.47;;;3.20;;
16310;SDS011;8264;48.510;8.872;2022-10-31T09:22:43;8.23;;;3.23;;
16310;SDS011;8264;48.510;8.872;2022-10-31T09:25:10;8.67;;;3.70;;
16310;SDS011;8264;48.510;8.872;2022-10-31T09:27:36;13.77;;;3.60;;
16310;SDS011;8264;48.510;8.872;2022-10-31T09:30:03;7.93;;;3.40;;
16310;SDS011;8264;48.510;8.872;2022-10-31T09:32:30;8.30;;;3.90;;
16310;SDS011;8264;48.510;8.872;2022-10-31T09:34:57;14.13;;;4.00;;
16310;SDS011;8264;48.510;8.872;2022-10-31T09:37:25;14.73;;;4.03;;
16310;SDS011;8264;48.510;8.872;2022-10-31T09:39:51;11.57;;;3.90;;
16310;SDS011;8264;48.510;8.872;2022-10-31T09:42:34;14.67;;;4.37;;
16310;SDS011;8264;48.510;8.872;2022-10-31T09:45:10;18.37;;;4.43;;
16310;SDS011;8264;48.510;8.872;2022-10-31T09:47:41;27.90;;;4.27;;
16310;SDS011;8264;48.510;8.872;2022-10-31T09:50:15;25.13;;;4.40;;
16310;SDS011;8264;48.510;8.872;2022-10-31T09:52:47;15.83;;;3.70;;
16310;SDS011;8264;48.510;8.872;2022-10-31T09:55:20;16.03;;;4.27;;
16310;SDS011;8264;48.510;8.872;2022-10-31T09:57:53;18.87;;;3.60;;
16310;SDS011;8264;48.510;8.872;2022-10-31T10:00:21;12.47;;;3.93;;
16310;SDS011;8264;48.510;8.872;2022-10-31T10:02:49;8.10;;;3.83;;
16310;SDS011;8264;48.510;8.872;2022-10-31T10:05:18;16.60;;;4.00;;
16310;SDS011;8264;48.510;8.872;2022-10-31T10:07:53;5.53;;;3.20;;
16310;SDS011;8264;48.510;8.872;2022-10-31T10:10:25;9.67;;;3.87;;
16310;SDS011;8264;48.510;8.872;2022-10-31T10:13:04;8.40;;;3.07;;
16310;SDS011;8264;48.510;8.872;2022-10-31T10:18:30;8.87;;;3.53;;
16310;SDS011;8264;48.510;8.872;2022-10-31T10:21:04;9.37;;;3.70;;
16310;SDS011;8264;48.510;8.872;2022-10-31T10:23:42;7.60;;;3.83;;
16310;SDS011;8264;48.510;8.872;2022-10-31T10:26:15;7.47;;;3.80;;
16310;SDS011;8264;48.510;8.872;2022-10-31T10:28:44;11.63;;;3.77;;
16310;SDS011;8264;48.510;8.872;2022-10-31T10:31:13;7.30;;;3.57;;
16310;SDS011;8264;48.510;8.872;2022-10-31T10:33:42;7.07;;;3.50;;
16310;SDS011;8264;48.510;8.872;2022-10-31T10:36:21;9.23;;;4.13;;
16310;SDS011;8264;48.510;8.872;2022-10-31T10:38:53;8.03;;;3.90;;
16310;SDS011;8264;48.510;8.872;2022-10-31T10:41:23;9.40;;;3.80;;
16310;SDS011;8264;48.510;8.872;2022-10-31T10:43:51;11.80;;;3.80;;
16310;SDS011;8264;48.510;8.872;2022-10-31T10:46:19;9.27;;;3.73;;
16310;SDS011;8264;48.510;8.872;2022-10-31T10:49:09;8.03;;;3.30;;
16310;SDS011;8264;48.510;8.872;2022-10-31T10:51:42;8.57;;;3.47;;
16310;SDS011;8264;48.510;8.872;2022-10-31T10:54:23;7.60;;;3.20;;
16310;SDS011;8264;48.510;8.872;2022-10-31T10:57:01;6.63;;;3.70;;
16310;SDS011;8264;48.510;8.872;2022-10-31T10:59:31;9.17;;;3.23;;
16310;SDS011;8264;48.510;8.872;2022-10-31T11:01:58;7.63;;;3.80;;
16310;SDS011;8264;48.510;8.872;2022-10-31T11:04:28;11.10;;;3.73;;
16310;SDS011;8264;48.510;8.872;2022-10-31T11:06:56;7.50;;;3.40;;
16310;SDS011;8264;48.510;8.872;2022-10-31T11:09:25;7.60;;;3.20;;
16310;SDS011;8264;48.510;8.872;2022-10-31T11:11:51;6.87;;;3.10;;
16310;SDS011;8264;48.510;8.872;2022-10-31T11:14:18;10.00;;;3.77;;
16310;SDS011;8264;48.510;8.872;2022-10-31T11:16:46;6.20;;;3.17;;
16310;SDS011;8264;48.510;8.872;2022-10-31T11:19:16;9.43;;;3.10;;
16310;SDS011;8264;48.510;8.872;2022-10-31T11:21:43;9.33;;;3.97;;
16310;SDS011;8264;48.510;8.872;2022-10-31T11:24:14;8.27;;;3.60;;
16310;SDS011;8264;48.510;8.872;2022-10-31T11:26:45;6.73;;;4.30;;
16310;SDS011;8264;48.510;8.872;2022-10-31T11:29:14;6.13;;;3.20;;
16310;SDS011;8264;48.510;8.872;2022-10-31T11:31:42;8.67;;;4.03;;
16310;SDS011;8264;48.510;8.872;2022-10-31T11:34:22;9.40;;;3.83;;
16310;SDS011;8264;48.510;8.872;2022-10-31T11:36:53;9.40;;;4.00;;
16310;SDS011;8264;48.510;8.872;2022-10-31T11:39:20;8.70;;;3.97;;
16310;SDS011;8264;48.510;8.872;2022-10-31T11:41:50;8.80;;;3.53;;
16310;SDS011;8264;48.510;8.872;2022-10-31T11:44:18;11.93;;;4.13;;
16310;SDS011;8264;48.510;8.872;2022-10-31T11:46:47;8.87;;;3.83;;
16310;SDS011;8264;48.510;8.872;2022-10-31T11:49:15;11.60;;;3.97;;
16310;SDS011;8264;48.510;8.872;2022-10-31T11:51:43;6.33;;;3.90;;
16310;SDS011;8264;48.510;8.872;2022-10-31T11:54:18;6.77;;;3.73;;
16310;SDS011;8264;48.510;8.872;2022-10-31T11:56:46;8.40;;;3.53;;
16310;SDS011;8264;48.510;8.872;2022-10-31T11:59:25;10.30;;;3.93;;
16310;SDS011;8264;48.510;8.872;2022-10-31T12:01:53;10.00;;;3.37;;
16310;SDS011;8264;48.510;8.872;2022-10-31T12:04:24;8.53;;;3.40;;
16310;SDS011;8264;48.510;8.872;2022-10-31T12:06:57;10.27;;;4.20;;
16310;SDS011;8264;48.510;8.872;2022-10-31T12:09:24;8.20;;;3.70;;
16310;SDS011;8264;48.510;8.872;2022-10-31T12:12:10;9.17;;;3.77;;
16310;SDS011;8264;48.510;8.872;2022-10-31T12:14:46;7.20;;;3.30;;
16310;SDS011;8264;48.510;8.872;2022-10-31T12:17:19;7.17;;;3.80;;
16310;SDS011;8264;48.510;8.872;2022-10-31T12:19:51;9.03;;;3.57;;
16310;SDS011;8264;48.510;8.872;2022-10-31T12:22:25;9.73;;;4.10;;
16310;SDS011;8264;48.510;8.872;2022-10-31T12:25:03;11.33;;;4.30;;
16310;SDS011;8264;48.510;8.872;2022-10-31T12:27:57;9.53;;;4.13;;
16310;SDS011;8264;48.510;8.872;2022-10-31T12:30:28;8.07;;;4.57;;
16310;SDS011;8264;48.510;8.872;2022-10-31T12:33:09;7.57;;;3.90;;
16310;SDS011;8264;48.510;8.872;2022-10-31T12:35:47;8.77;;;4.27;;
16310;SDS011;8264;48.510;8.872;2022-10-31T12:38:31;8.50;;;3.73;;
16310;SDS011;8264;48.510;8.872;2022-10-31T12:41:17;9.97;;;3.70;;
16310;SDS011;8264;48.510;8.872;2022-10-31T12:43:52;8.17;;;3.90;;
16310;SDS011;8264;48.510;8.872;2022-10-31T12:46:25;12.77;;;4.00;;
16310;SDS011;8264;48.510;8.872;2022-10-31T12:49:20;8.13;;;4.20;;
16310;SDS011;8264;48.510;8.872;2022-10-31T12:51:56;8.00;;;3.87;;
16310;SDS011;8264;48.510;8.872;2022-10-31T12:54:36;7.37;;;4.10;;
16310;SDS011;8264;48.510;8.872;2022-10-31T12:57:13;9.13;;;4.10;;
16310;SDS011;8264;48.510;8.872;2022-10-31T12:59:47;8.27;;;3.83;;
16310;SDS011;8264;48.510;8.872;2022-10-31T13:02:18;7.63;;;4.00;;
16310;SDS011;8264;48.510;8.872;2022-10-31T13:04:47;8.20;;;3.37;;
16310;SDS011;8264;48.510;8.872;2022-10-31T13:07:17;5.77;;;3.57;;
16310;SDS011;8264;48.510;8.872;2022-10-31T13:09:48;5.30;;;3.70;;
16310;SDS011;8264;48.510;8.872;2022-10-31T13:12:20;7.60;;;3.60;;
16310;SDS011;8264;48.510;8.872;2022-10-31T13:14:48;10.33;;;4.67;;
16310;SDS011;8264;48.510;8.872;2022-10-31T13:17:20;8.40;;;3.80;;
16310;SDS011;8264;48.510;8.872;2022-10-31T13:19:50;8.27;;;4.43;;
16310;SDS011;8264;48.510;8.872;2022-10-31T13:22:19;11.43;;;4.10;;
16310;SDS011;8264;48.510;8.872;2022-10-31T13:24:50;6.97;;;3.70;;
16310;SDS011;8264;48.510;8.872;2022-10-31T13:27:21;10.13;;;4.70;;
16310;SDS011;8264;48.510;8.872;2022-10-31T13:29:52;10.90;;;3.77;;
16310;SDS011;8264;48.510;8.872;2022-10-31T13:32:25;8.67;;;4.00;;
16310;SDS011;8264;48.510;8.872;2022-10-31T13:34:53;7.17;;;3.43;;
16310;SDS011;8264;48.510;8.872;2022-10-31T13:37:23;9.07;;;3.97;;
16310;SDS011;8264;48.510;8.872;2022-10-31T13:40:00;10.43;;;4.47;;
16310;SDS011;8264;48.510;8.872;2022-10-31T13:42:37;8.27;;;3.40;;
16310;SDS011;8264;48.510;8.872;2022-10-31T13:45:22;8.03;;;3.93;;
16310;SDS011;8264;48.510;8.872;2022-10-31T13:47:58;8.77;;;3.83;;
16310;SDS011;8264;48.510;8.872;2022-10-31T13:50:26;10.47;;;4.17;;
16310;SDS011;8264;48.510;8.872;2022-10-31T13:53:03;10.33;;;3.33;;
16310;SDS011;8264;48.510;8.872;2022-10-31T13:55:37;10.63;;;3.63;;
16310;SDS011;8264;48.510;8.872;2022-10-31T13:58:19;6.53;;;3.40;;
16310;SDS011;8264;48.510;8.872;2022-10-31T14:00:57;8.10;;;3.80;;
16310;SDS011;8264;48.510;8.872;2022-10-31T14:03:26;7.63;;;4.00;;
16310;SDS011;8264;48.510;8.872;2022-10-31T14:05:53;9.93;;;4.03;;
16310;SDS011;8264;48.510;8.872;2022-10-31T14:08:21;12.47;;;3.97;;
16310;SDS011;8264;48.510;8.872;2022-10-31T14:10:49;11.00;;;3.63;;
16310;SDS011;8264;48.510;8.872;2022-10-31T14:13:18;9.23;;;3.93;;
16310;SDS011;8264;48.510;8.872;2022-10-31T14:15:52;8.60;;;3.70;;
16310;SDS011;8264;48.510;8.872;2022-10-31T14:18:21;10.27;;;4.07;;
16310;SDS011;8264;48.510;8.872;2022-10-31T14:20:50;12.60;;;4.03;;
16310;SDS011;8264;48.510;8.872;2022-10-31T14:23:33;10.50;;;3.97;;
16310;SDS011;8264;48.510;8.872;2022-10-31T14:28:56;7.03;;;3.50;;
16310;SDS011;8264;48.510;8.872;2022-10-31T14:31:27;13.77;;;3.93;;
16310;SDS011;8264;48.510;8.872;2022-10-31T14:33:58;7.47;;;4.30;;
16310;SDS011;8264;48.510;8.872;2022-10-31T14:36:28;6.60;;;3.50;;
16310;SDS011;8264;48.510;8.872;2022-10-31T14:39:00;9.87;;;3.87;;
16310;SDS011;8264;48.510;8.872;2022-10-31T14:41:35;9.40;;;4.07;;
16310;SDS011;8264;48.510;8.872;2022-10-31T14:44:17;8.67;;;3.53;;
16310;SDS011;8264;48.510;8.872;2022-10-31T14:46:53;10.13;;;3.70;;
16310;SDS011;8264;48.510;8.872;2022-10-31T14:49:31;7.67;;;3.93;;
16310;SDS011;8264;48.510;8.872;2022-10-31T14:52:06;10.13;;;4.17;;
16310;SDS011;8264;48.510;8.872;2022-10-31T14:54:33;10.37;;;3.90;;
16310;SDS011;8264;48.510;8.872;2022-10-31T14:57:03;11.70;;;4.03;;
16310;SDS011;8264;48.510;8.872;2022-10-31T14:59:32;15.73;;;4.40;;
16310;SDS011;8264;48.510;8.872;2022-10-31T15:02:06;8.90;;;3.90;;
16310;SDS011;8264;48.510;8.872;2022-10-31T15:04:36;7.77;;;3.90;;
16310;SDS011;8264;48.510;8.872;2022-10-31T15:07:04;11.47;;;4.87;;
16310;SDS011;8264;48.510;8.872;2022-10-31T15:09:34;11.83;;;4.37;;
16310;SDS011;8264;48.510;8.872;2022-10-31T15:12:16;7.83;;;3.80;;
16310;SDS011;8264;48.510;8.872;2022-10-31T15:14:48;10.77;;;4.43;;
16310;SDS011;8264;48.510;8.872;2022-10-31T15:17:15;9.67;;;4.33;;
16310;SDS011;8264;48.510;8.872;2022-10-31T15:19:42;7.70;;;4.33;;
16310;SDS011;8264;48.510;8.872;2022-10-31T15:22:13;11.83;;;4.20;;
16310;SDS011;8264;48.510;8.872;2022-10-31T15:24:41;8.67;;;4.07;;
16310;SDS011;8264;48.510;8.872;2022-10-31T15:27:10;10.43;;;4.30;;
16310;SDS011;8264;48.510;8.872;2022-10-31T15:29:46;15.03;;;4.03;;